sensor_id;sensor_type;location;lat;lon;timestamp;pressure;altitude;pressure_sealevel;temperature
29701;BMP280;57917;51.380;-0.176;2022-09-03T00:01:20;100595.66;;;19.33
29701;BMP280;57917;51.380;-0.176;2022-09-03T00:07:41;100578.44;;;19.22
29701;BMP280;57917;51.380;-0.176;2022-09-03T00:13:35;100572.00;;;19.39
29701;BMP280;57917;51.380;-0.176;2022-09-03T00:19:26;100567.13;;;19.29
29701;BMP280;57917;51.380;-0.176;2022-09-03T00:25:18;100562.41;;;19.26
29701;BMP280;57917;51.380;-0.176;2022-09-03T00:31:12;100556.97;;;19.22
29701;BMP280;57917;51.380;-0.176;2022-09-03T00:37:03;100557.75;;;19.23
29701;BMP280;57917;51.380;-0.176;2022-09-03T00:55:44;100547.94;;;19.03
29701;BMP280;57917;51.380;-0.176;2022-09-03T01:01:56;100550.28;;;18.80
29701;BMP280;57917;51.380;-0.176;2022-09-03T01:32:27;100552.00;;;18.40
29701;BMP280;57917;51.380;-0.176;2022-09-03T01:57:07;100549.69;;;18.38
29701;BMP280;57917;51.380;-0.176;2022-09-03T02:03:20;100548.13;;;18.37
29701;BMP280;57917;51.380;-0.176;2022-09-03T02:09:06;100554.59;;;18.36
29701;BMP280;57917;51.380;-0.176;2022-09-03T02:14:54;100552.47;;;18.30
29701;BMP280;57917;51.380;-0.176;2022-09-03T02:20:41;100547.09;;;18.30
29701;BMP280;57917;51.380;-0.176;2022-09-03T02:26:28;100554.03;;;18.31
29701;BMP280;57917;51.380;-0.176;2022-09-03T02:32:15;100575.22;;;18.24
29701;BMP280;57917;51.380;-0.176;2022-09-03T02:38:10;100569.06;;;18.23
29701;BMP280;57917;51.380;-0.176;2022-09-03T02:44:30;100572.94;;;18.02
29701;BMP280;57917;51.380;-0.176;2022-09-03T02:50:18;100575.91;;;18.21
29701;BMP280;57917;51.380;-0.176;2022-09-03T02:56:05;100567.00;;;18.29
29701;BMP280;57917;51.380;-0.176;2022-09-03T03:01:53;100577.03;;;18.32
29701;BMP280;57917;51.380;-0.176;2022-09-03T03:07:39;100564.31;;;18.41
29701;BMP280;57917;51.380;-0.176;2022-09-03T03:13:30;100569.56;;;18.37
29701;BMP280;57917;51.380;-0.176;2022-09-03T03:19:17;100569.69;;;18.41
29701;BMP280;57917;51.380;-0.176;2022-09-03T03:25:05;100564.50;;;18.24
29701;BMP280;57917;51.380;-0.176;2022-09-03T03:30:52;100554.69;;;18.40
29701;BMP280;57917;51.380;-0.176;2022-09-03T03:36:38;100550.13;;;18.28
29701;BMP280;57917;51.380;-0.176;2022-09-03T03:42:25;100553.22;;;18.30
29701;BMP280;57917;51.380;-0.176;2022-09-03T03:48:12;100549.13;;;18.33
29701;BMP280;57917;51.380;-0.176;2022-09-03T03:53:59;100542.25;;;18.44
29701;BMP280;57917;51.380;-0.176;2022-09-03T03:59:50;100547.16;;;18.54
29701;BMP280;57917;51.380;-0.176;2022-09-03T04:05:37;100541.78;;;18.54
29701;BMP280;57917;51.380;-0.176;2022-09-03T04:11:33;100535.72;;;18.21
29701;BMP280;57917;51.380;-0.176;2022-09-03T04:17:20;100536.72;;;18.40
29701;BMP280;57917;51.380;-0.176;2022-09-03T04:23:10;100523.84;;;18.22
29701;BMP280;57917;51.380;-0.176;2022-09-03T04:28:59;100527.22;;;18.31
29701;BMP280;57917;51.380;-0.176;2022-09-03T04:34:47;100525.34;;;18.31
29701;BMP280;57917;51.380;-0.176;2022-09-03T04:40:36;100536.06;;;18.31
29701;BMP280;57917;51.380;-0.176;2022-09-03T04:46:26;100538.53;;;18.48
29701;BMP280;57917;51.380;-0.176;2022-09-03T04:52:19;100532.81;;;18.38
29701;BMP280;57917;51.380;-0.176;2022-09-03T04:58:06;100531.91;;;18.34
29701;BMP280;57917;51.380;-0.176;2022-09-03T05:03:55;100538.59;;;18.28
29701;BMP280;57917;51.380;-0.176;2022-09-03T05:09:43;100550.72;;;18.13
29701;BMP280;57917;51.380;-0.176;2022-09-03T05:15:31;100545.97;;;18.19
29701;BMP280;57917;51.380;-0.176;2022-09-03T05:21:18;100546.28;;;18.17
29701;BMP280;57917;51.380;-0.176;2022-09-03T05:27:05;100540.16;;;18.17
29701;BMP280;57917;51.380;-0.176;2022-09-03T05:32:53;100535.22;;;18.07
29701;BMP280;57917;51.380;-0.176;2022-09-03T05:38:40;100535.63;;;18.09
29701;BMP280;57917;51.380;-0.176;2022-09-03T05:44:27;100523.25;;;18.04
29701;BMP280;57917;51.380;-0.176;2022-09-03T05:50:14;100535.94;;;17.95
29701;BMP280;57917;51.380;-0.176;2022-09-03T05:56:03;100548.63;;;17.86
29701;BMP280;57917;51.380;-0.176;2022-09-03T06:01:51;100548.34;;;18.00
29701;BMP280;57917;51.380;-0.176;2022-09-03T06:07:45;100539.50;;;18.20
29701;BMP280;57917;51.380;-0.176;2022-09-03T06:13:35;100555.66;;;18.44
29701;BMP280;57917;51.380;-0.176;2022-09-03T06:19:22;100560.56;;;18.66
29701;BMP280;57917;51.380;-0.176;2022-09-03T06:25:09;100561.22;;;18.63
29701;BMP280;57917;51.380;-0.176;2022-09-03T06:30:57;100548.69;;;18.67
29701;BMP280;57917;51.380;-0.176;2022-09-03T06:36:44;100557.06;;;18.53
29701;BMP280;57917;51.380;-0.176;2022-09-03T06:42:31;100561.44;;;18.58
29701;BMP280;57917;51.380;-0.176;2022-09-03T06:48:19;100563.69;;;18.68
29701;BMP280;57917;51.380;-0.176;2022-09-03T06:54:08;100555.97;;;18.91
29701;BMP280;57917;51.380;-0.176;2022-09-03T06:59:58;100565.69;;;19.19
29701;BMP280;57917;51.380;-0.176;2022-09-03T07:05:45;100572.00;;;19.39
29701;BMP280;57917;51.380;-0.176;2022-09-03T07:11:33;100555.09;;;19.62
29701;BMP280;57917;51.380;-0.176;2022-09-03T07:17:21;100547.63;;;19.99
29701;BMP280;57917;51.380;-0.176;2022-09-03T07:23:08;100557.63;;;20.14
29701;BMP280;57917;51.380;-0.176;2022-09-03T07:29:00;100558.75;;;20.44
29701;BMP280;57917;51.380;-0.176;2022-09-03T07:34:47;100555.81;;;20.80
29701;BMP280;57917;51.380;-0.176;2022-09-03T07:40:34;100536.63;;;21.16
29701;BMP280;57917;51.380;-0.176;2022-09-03T07:46:23;100538.13;;;21.32
29701;BMP280;57917;51.380;-0.176;2022-09-03T07:52:11;100542.00;;;21.76
29701;BMP280;57917;51.380;-0.176;2022-09-03T07:58:03;100541.66;;;22.20
29701;BMP280;57917;51.380;-0.176;2022-09-03T08:03:51;100555.69;;;22.55
29701;BMP280;57917;51.380;-0.176;2022-09-03T08:09:42;100551.97;;;22.63
29701;BMP280;57917;51.380;-0.176;2022-09-03T08:15:29;100566.34;;;22.70
29701;BMP280;57917;51.380;-0.176;2022-09-03T08:21:17;100562.44;;;23.27
29701;BMP280;57917;51.380;-0.176;2022-09-03T08:27:05;100583.09;;;23.78
29701;BMP280;57917;51.380;-0.176;2022-09-03T08:32:54;100573.88;;;24.26
29701;BMP280;57917;51.380;-0.176;2022-09-03T08:38:47;100572.97;;;24.59
29701;BMP280;57917;51.380;-0.176;2022-09-03T08:44:47;100580.47;;;24.29
29701;BMP280;57917;51.380;-0.176;2022-09-03T08:50:40;100582.31;;;24.18
29701;BMP280;57917;51.380;-0.176;2022-09-03T08:56:50;100583.72;;;24.48
29701;BMP280;57917;51.380;-0.176;2022-09-03T09:15:03;100576.41;;;25.34
29701;BMP280;57917;51.380;-0.176;2022-09-03T09:27:06;100578.06;;;25.95
29701;BMP280;57917;51.380;-0.176;2022-09-03T09:32:59;100578.00;;;25.53
29701;BMP280;57917;51.380;-0.176;2022-09-03T09:38:46;100593.81;;;24.55
29701;BMP280;57917;51.380;-0.176;2022-09-03T09:44:41;100581.34;;;25.08
29701;BMP280;57917;51.380;-0.176;2022-09-03T09:58:24;100587.91;;;25.07
29701;BMP280;57917;51.380;-0.176;2022-09-03T10:04:21;100585.41;;;26.19
29701;BMP280;57917;51.380;-0.176;2022-09-03T10:16:05;100581.16;;;25.97
29701;BMP280;57917;51.380;-0.176;2022-09-03T10:22:17;100578.81;;;26.16
29701;BMP280;57917;51.380;-0.176;2022-09-03T10:28:08;100572.53;;;26.65
29701;BMP280;57917;51.380;-0.176;2022-09-03T10:46:25;100573.59;;;26.92
29701;BMP280;57917;51.380;-0.176;2022-09-03T11:11:19;100565.31;;;27.23
29701;BMP280;57917;51.380;-0.176;2022-09-03T11:17:51;100563.81;;;27.12
29701;BMP280;57917;51.380;-0.176;2022-09-03T11:24:19;100564.50;;;27.30
29701;BMP280;57917;51.380;-0.176;2022-09-03T11:38:24;100569.38;;;26.80
29701;BMP280;57917;51.380;-0.176;2022-09-03T11:44:18;100565.53;;;26.71
29701;BMP280;57917;51.380;-0.176;2022-09-03T11:50:17;100560.00;;;26.92
29701;BMP280;57917;51.380;-0.176;2022-09-03T11:56:35;100546.94;;;26.62
29701;BMP280;57917;51.380;-0.176;2022-09-03T12:02:35;100559.06;;;26.19
29701;BMP280;57917;51.380;-0.176;2022-09-03T12:21:04;100565.66;;;26.15
29701;BMP280;57917;51.380;-0.176;2022-09-03T12:26:54;100571.84;;;26.19
29701;BMP280;57917;51.380;-0.176;2022-09-03T12:33:01;100570.97;;;26.64
29701;BMP280;57917;51.380;-0.176;2022-09-03T12:38:50;100569.13;;;25.98
29701;BMP280;57917;51.380;-0.176;2022-09-03T12:45:05;100579.97;;;25.73
29701;BMP280;57917;51.380;-0.176;2022-09-03T12:51:00;100586.91;;;25.53
29701;BMP280;57917;51.380;-0.176;2022-09-03T12:57:09;100585.00;;;25.68
29701;BMP280;57917;51.380;-0.176;2022-09-03T13:03:07;100590.41;;;25.61
29701;BMP280;57917;51.380;-0.176;2022-09-03T13:09:06;100600.50;;;25.71
29701;BMP280;57917;51.380;-0.176;2022-09-03T13:14:53;100598.97;;;25.87
29701;BMP280;57917;51.380;-0.176;2022-09-03T13:39:26;100609.06;;;25.87
29701;BMP280;57917;51.380;-0.176;2022-09-03T13:57:33;100617.13;;;25.59
29701;BMP280;57917;51.380;-0.176;2022-09-03T14:22:00;100631.81;;;25.51
29701;BMP280;57917;51.380;-0.176;2022-09-03T14:27:51;100623.66;;;25.40
29701;BMP280;57917;51.380;-0.176;2022-09-03T14:33:42;100616.97;;;25.13
29701;BMP280;57917;51.380;-0.176;2022-09-03T15:33:42;100647.84;;;24.41
29701;BMP280;57917;51.380;-0.176;2022-09-03T15:39:34;100647.22;;;24.65
29701;BMP280;57917;51.380;-0.176;2022-09-03T15:51:27;100664.31;;;24.72
29701;BMP280;57917;51.380;-0.176;2022-09-03T15:57:28;100663.19;;;24.77
29701;BMP280;57917;51.380;-0.176;2022-09-03T16:03:34;100656.44;;;24.53
29701;BMP280;57917;51.380;-0.176;2022-09-03T16:09:48;100672.56;;;24.43
29701;BMP280;57917;51.380;-0.176;2022-09-03T16:16:03;100675.53;;;23.91
29701;BMP280;57917;51.380;-0.176;2022-09-03T16:52:52;100704.72;;;23.45
29701;BMP280;57917;51.380;-0.176;2022-09-03T16:58:58;100703.63;;;23.24
29701;BMP280;57917;51.380;-0.176;2022-09-03T17:36:25;100740.94;;;22.47
29701;BMP280;57917;51.380;-0.176;2022-09-03T18:00:37;100754.25;;;22.18
29701;BMP280;57917;51.380;-0.176;2022-09-03T18:06:33;100753.53;;;22.21
29701;BMP280;57917;51.380;-0.176;2022-09-03T18:12:31;100751.31;;;22.26
29701;BMP280;57917;51.380;-0.176;2022-09-03T18:24:40;100767.63;;;22.14
29701;BMP280;57917;51.380;-0.176;2022-09-03T18:30:47;100776.56;;;22.18
29701;BMP280;57917;51.380;-0.176;2022-09-03T18:36:56;100782.53;;;22.08
29701;BMP280;57917;51.380;-0.176;2022-09-03T19:01:55;100795.28;;;21.57
29701;BMP280;57917;51.380;-0.176;2022-09-03T19:14:32;100792.19;;;21.40
29701;BMP280;57917;51.380;-0.176;2022-09-03T19:20:59;100793.28;;;21.39
29701;BMP280;57917;51.380;-0.176;2022-09-03T19:40:12;100824.72;;;21.04
29701;BMP280;57917;51.380;-0.176;2022-09-03T19:46:40;100833.16;;;21.02
29701;BMP280;57917;51.380;-0.176;2022-09-03T19:52:55;100833.84;;;20.99
29701;BMP280;57917;51.380;-0.176;2022-09-03T19:59:10;100848.97;;;20.76
29701;BMP280;57917;51.380;-0.176;2022-09-03T20:05:19;100859.31;;;20.74
29701;BMP280;57917;51.380;-0.176;2022-09-03T20:11:29;100855.41;;;20.72
29701;BMP280;57917;51.380;-0.176;2022-09-03T21:00:03;100899.41;;;19.80
29701;BMP280;57917;51.380;-0.176;2022-09-03T21:06:06;100903.78;;;19.72
29701;BMP280;57917;51.380;-0.176;2022-09-03T21:24:07;100914.44;;;19.48
29701;BMP280;57917;51.380;-0.176;2022-09-03T21:30:10;100913.44;;;19.41
29701;BMP280;57917;51.380;-0.176;2022-09-03T21:48:09;100922.72;;;19.43
29701;BMP280;57917;51.380;-0.176;2022-09-03T21:54:20;100923.41;;;19.20
29701;BMP280;57917;51.380;-0.176;2022-09-03T22:00:18;100921.09;;;19.30
29701;BMP280;57917;51.380;-0.176;2022-09-03T22:06:43;100920.19;;;19.26
29701;BMP280;57917;51.380;-0.176;2022-09-03T22:19:08;100924.41;;;19.15
29701;BMP280;57917;51.380;-0.176;2022-09-03T22:50:38;100931.59;;;18.82
29701;BMP280;57917;51.380;-0.176;2022-09-03T22:56:35;100933.13;;;18.71
29701;BMP280;57917;51.380;-0.176;2022-09-03T23:02:26;100937.28;;;18.60
29701;BMP280;57917;51.380;-0.176;2022-09-03T23:31:42;100949.66;;;18.15
